createdAt,value
2022-12-17T00:02:37.878Z,-6.50
2022-12-17T00:05:23.698Z,-6.50
2022-12-17T00:08:16.053Z,-6.40
2022-12-17T00:11:01.232Z,-6.40
2022-12-17T00:13:47.515Z,-6.40
2022-12-17T00:16:32.709Z,-6.40
2022-12-17T00:19:17.890Z,-6.30
2022-12-17T00:22:03.297Z,-6.30
2022-12-17T00:24:48.799Z,-6.20
2022-12-17T00:27:34.234Z,-6.20
2022-12-17T00:30:19.257Z,-6.10
2022-12-17T00:33:04.323Z,-6.00
2022-12-17T00:35:49.670Z,-6.00
2022-12-17T00:38:35.730Z,-6.00
2022-12-17T00:41:20.924Z,-5.90
2022-12-17T00:44:05.935Z,-6.00
2022-12-17T00:46:50.993Z,-5.90
2022-12-17T00:49:37.051Z,-5.80
2022-12-17T00:52:22.116Z,-5.80
2022-12-17T00:55:07.287Z,-5.70
2022-12-17T00:57:52.883Z,-5.70
2022-12-17T01:00:38.607Z,-5.60
2022-12-17T01:03:28.660Z,-5.40
2022-12-17T01:06:13.697Z,-5.30
2022-12-17T01:08:58.708Z,-5.20
2022-12-17T01:11:43.837Z,-5.20
2022-12-17T01:14:28.865Z,-5.10
2022-12-17T01:17:14.715Z,-4.90
2022-12-17T01:19:59.877Z,-4.90
2022-12-17T01:22:45.152Z,-4.90
2022-12-17T01:25:30.434Z,-4.90
2022-12-17T01:28:16.765Z,-4.90
2022-12-17T01:31:01.915Z,-4.80
2022-12-17T01:33:47.010Z,-4.70
2022-12-17T01:36:32.225Z,-4.60
2022-12-17T01:39:17.402Z,-4.70
2022-12-17T01:42:02.514Z,-4.60
2022-12-17T01:45:04.643Z,-4.60
2022-12-17T01:47:57.061Z,-4.60
2022-12-17T01:50:44.082Z,-4.60
2022-12-17T01:53:29.181Z,-4.60
2022-12-17T01:56:15.583Z,-4.60
2022-12-17T01:59:00.630Z,-4.60
2022-12-17T02:01:46.044Z,-4.60
2022-12-17T02:04:36.715Z,-4.60
2022-12-17T02:07:41.570Z,-4.60
2022-12-17T02:10:59.139Z,-4.60
2022-12-17T02:13:55.733Z,-4.70
2022-12-17T02:16:44.881Z,-4.70
2022-12-17T02:20:10.204Z,-4.60
2022-12-17T02:23:19.650Z,-4.70
2022-12-17T02:26:18.900Z,-4.70
2022-12-17T02:29:05.669Z,-4.80
2022-12-17T02:31:51.012Z,-4.80
2022-12-17T02:34:36.742Z,-4.70
2022-12-17T02:37:21.985Z,-4.80
2022-12-17T02:40:07.201Z,-4.90
2022-12-17T02:42:53.470Z,-4.90
2022-12-17T02:45:38.709Z,-4.90
2022-12-17T02:48:24.859Z,-4.90
2022-12-17T02:51:09.933Z,-5.00
2022-12-17T02:54:03.040Z,-5.00
2022-12-17T02:56:48.547Z,-5.00
2022-12-17T02:59:33.820Z,-5.00
2022-12-17T03:02:26.396Z,-5.00
2022-12-17T03:05:42.751Z,-5.10
2022-12-17T03:08:16.990Z,-5.10
2022-12-17T03:11:02.118Z,-5.00
2022-12-17T03:13:47.795Z,-4.90
2022-12-17T03:16:37.764Z,-4.90
2022-12-17T03:19:23.387Z,-5.00
2022-12-17T03:22:08.431Z,-5.00
2022-12-17T03:24:53.564Z,-5.10
2022-12-17T03:27:38.669Z,-5.10
2022-12-17T03:30:24.575Z,-5.20
2022-12-17T03:33:09.815Z,-5.20
2022-12-17T03:35:54.964Z,-5.20
2022-12-17T03:38:40.231Z,-5.30
2022-12-17T03:41:25.156Z,-5.30
2022-12-17T03:44:10.225Z,-5.40
2022-12-17T03:46:55.242Z,-5.40
2022-12-17T03:49:40.568Z,-5.40
2022-12-17T03:52:25.649Z,-5.40
2022-12-17T03:55:10.706Z,-5.40
2022-12-17T03:57:55.984Z,-5.40
2022-12-17T04:00:41.165Z,-5.40
2022-12-17T04:03:26.340Z,-5.50
2022-12-17T04:06:11.461Z,-5.60
2022-12-17T04:09:04.072Z,-5.60
2022-12-17T04:11:49.172Z,-5.60
2022-12-17T04:14:34.420Z,-5.60
2022-12-17T04:17:19.573Z,-5.70
2022-12-17T04:20:07.917Z,-5.70
2022-12-17T04:22:53.034Z,-5.80
2022-12-17T04:25:38.154Z,-5.90
2022-12-17T04:28:23.715Z,-5.90
2022-12-17T04:31:08.897Z,-5.90
2022-12-17T04:33:54.104Z,-5.90
2022-12-17T04:36:39.088Z,-5.90
2022-12-17T04:39:24.364Z,-6.00
2022-12-17T04:42:09.593Z,-6.00
2022-12-17T04:44:54.652Z,-6.00
2022-12-17T04:47:39.877Z,-6.00
2022-12-17T04:50:25.549Z,-6.10
2022-12-17T04:53:21.025Z,-6.10
2022-12-17T04:56:06.015Z,-6.10
2022-12-17T04:58:51.237Z,-6.20
2022-12-17T05:01:36.412Z,-6.20
2022-12-17T05:04:21.720Z,-6.20
2022-12-17T05:07:06.914Z,-6.30
2022-12-17T05:10:08.773Z,-6.30
2022-12-17T05:12:54.050Z,-6.40
2022-12-17T05:15:39.108Z,-6.40
2022-12-17T05:18:25.430Z,-6.40
2022-12-17T05:21:10.459Z,-6.50
2022-12-17T05:23:55.548Z,-6.40
2022-12-17T05:26:42.155Z,-6.50
2022-12-17T05:29:27.226Z,-6.50
2022-12-17T05:32:12.451Z,-6.50
2022-12-17T05:34:57.623Z,-6.50
2022-12-17T05:37:42.904Z,-6.60
2022-12-17T05:40:28.698Z,-6.50
2022-12-17T05:43:15.238Z,-6.60
2022-12-17T05:46:00.988Z,-6.60
2022-12-17T05:48:46.176Z,-6.70
2022-12-17T05:51:35.735Z,-6.70
2022-12-17T05:54:23.781Z,-6.80
2022-12-17T05:57:08.967Z,-6.70
2022-12-17T05:59:54.164Z,-6.70
2022-12-17T06:02:39.473Z,-6.70
2022-12-17T06:05:25.099Z,-6.80
2022-12-17T06:08:10.482Z,-6.70
2022-12-17T06:10:56.015Z,-6.70
2022-12-17T06:13:41.112Z,-6.80
2022-12-17T06:16:26.466Z,-6.90
2022-12-17T06:19:11.638Z,-7.00
2022-12-17T06:21:56.831Z,-7.10
2022-12-17T06:24:45.917Z,-7.20
2022-12-17T06:27:31.861Z,-7.20
2022-12-17T06:30:19.132Z,-7.20
2022-12-17T06:33:04.896Z,-7.20
2022-12-17T06:35:49.966Z,-7.20
2022-12-17T06:38:35.093Z,-7.30
2022-12-17T06:41:20.739Z,-7.30
2022-12-17T06:44:06.054Z,-7.40
2022-12-17T06:46:51.212Z,-7.50
2022-12-17T06:49:36.453Z,-7.70
2022-12-17T06:52:21.774Z,-7.80
2022-12-17T06:55:06.875Z,-7.80
2022-12-17T06:57:52.140Z,-7.80
2022-12-17T07:00:37.345Z,-7.80
2022-12-17T07:03:28.164Z,-7.80
2022-12-17T07:06:13.602Z,-7.80
2022-12-17T07:08:58.768Z,-7.90
2022-12-17T07:11:43.942Z,-7.90
2022-12-17T07:14:29.041Z,-7.90
2022-12-17T07:17:27.776Z,-7.80
2022-12-17T07:20:12.956Z,-7.90
2022-12-17T07:22:58.352Z,-7.80
2022-12-17T07:25:46.217Z,-7.80
2022-12-17T07:28:31.514Z,-7.80
2022-12-17T07:31:16.788Z,-7.60
2022-12-17T07:34:02.034Z,-7.50
2022-12-17T07:36:47.202Z,-7.40
2022-12-17T07:39:32.955Z,-7.30
2022-12-17T07:42:17.993Z,-7.20
2022-12-17T07:45:03.037Z,-7.20
2022-12-17T07:47:48.351Z,-7.20
2022-12-17T07:50:33.641Z,-7.20
2022-12-17T07:53:20.037Z,-7.10
2022-12-17T07:56:05.618Z,-7.00
2022-12-17T07:58:50.762Z,-6.90
2022-12-17T08:01:35.765Z,-7.10
2022-12-17T08:04:20.885Z,-7.20
2022-12-17T08:07:11.153Z,-7.30
2022-12-17T08:09:57.292Z,-7.10
2022-12-17T08:12:42.405Z,-6.90
2022-12-17T08:15:28.008Z,-6.90
2022-12-17T08:18:26.159Z,-6.80
2022-12-17T08:21:12.335Z,-6.90
2022-12-17T08:24:01.889Z,-6.80
2022-12-17T08:26:48.401Z,-6.80
2022-12-17T08:29:34.619Z,-6.80
2022-12-17T08:32:20.818Z,-6.80
2022-12-17T08:35:05.813Z,-6.80
2022-12-17T08:37:51.034Z,-6.70
2022-12-17T08:40:36.137Z,-6.70
2022-12-17T08:43:21.948Z,-6.80
2022-12-17T08:46:07.629Z,-6.70
2022-12-17T08:48:53.259Z,-6.70
2022-12-17T08:51:39.010Z,-6.70
2022-12-17T08:54:24.100Z,-6.70
2022-12-17T08:57:09.320Z,-6.80
2022-12-17T08:59:54.360Z,-6.80
2022-12-17T09:02:39.627Z,-6.70
2022-12-17T09:05:25.459Z,-6.70
2022-12-17T09:08:20.604Z,-6.70
2022-12-17T09:11:05.602Z,-6.50
2022-12-17T09:13:50.802Z,-6.70
2022-12-17T09:16:36.053Z,-6.70
2022-12-17T09:19:21.207Z,-6.60
2022-12-17T09:22:06.448Z,-6.70
2022-12-17T09:24:51.665Z,-6.90
2022-12-17T09:27:36.946Z,-6.80
2022-12-17T09:30:22.903Z,-6.60
2022-12-17T09:33:08.088Z,-6.60
2022-12-17T09:35:56.255Z,-6.50
2022-12-17T09:38:41.459Z,-6.60
2022-12-17T09:41:47.637Z,-6.50
2022-12-17T09:44:45.423Z,-6.30
2022-12-17T09:47:48.682Z,-6.30
2022-12-17T09:50:33.850Z,-6.30
2022-12-17T09:53:23.756Z,-6.30
2022-12-17T09:56:09.857Z,-6.30
2022-12-17T09:58:56.950Z,-6.30
2022-12-17T10:01:44.440Z,-6.20
2022-12-17T10:04:33.735Z,-6.10
2022-12-17T10:07:19.868Z,-5.90
2022-12-17T10:10:07.497Z,-5.90
2022-12-17T10:13:06.491Z,-5.80
2022-12-17T10:15:51.640Z,-5.70
2022-12-17T10:18:40.086Z,-5.70
2022-12-17T10:21:28.834Z,-5.60
2022-12-17T10:24:27.609Z,-5.50
2022-12-17T10:27:12.790Z,-5.50
2022-12-17T10:29:58.800Z,-5.40
2022-12-17T10:32:44.500Z,-5.30
2022-12-17T10:35:53.484Z,-5.30
2022-12-17T10:38:46.364Z,-5.40
2022-12-17T10:41:39.245Z,-5.30
2022-12-17T10:44:47.267Z,-5.20
2022-12-17T10:47:42.747Z,-5.20
2022-12-17T10:50:35.860Z,-5.10
2022-12-17T10:53:21.464Z,-5.10
2022-12-17T10:56:14.736Z,-5.00
2022-12-17T10:59:10.813Z,-5.00
2022-12-17T11:01:57.655Z,-4.90
2022-12-17T11:04:47.086Z,-4.90
2022-12-17T11:07:56.155Z,-4.80
2022-12-17T11:10:42.889Z,-4.80
2022-12-17T11:13:30.911Z,-4.80
2022-12-17T11:16:17.106Z,-4.70
2022-12-17T11:19:16.816Z,-4.60
2022-12-17T11:22:10.092Z,-4.60
2022-12-17T11:25:12.441Z,-4.60
2022-12-17T11:28:03.104Z,-4.60
2022-12-17T11:30:51.888Z,-4.50
2022-12-17T11:33:49.788Z,-4.50
2022-12-17T11:36:49.467Z,-4.50
2022-12-17T11:39:48.771Z,-4.40
2022-12-17T11:42:38.843Z,-4.40
2022-12-17T11:45:43.305Z,-4.40
2022-12-17T11:48:39.709Z,-4.30
2022-12-17T11:51:37.992Z,-4.20
2022-12-17T11:54:38.406Z,-4.20
2022-12-17T11:57:51.967Z,-4.10
2022-12-17T12:00:40.762Z,-4.10
2022-12-17T12:04:11.367Z,-4.10
2022-12-17T12:06:59.846Z,-4.00
2022-12-17T12:09:58.816Z,-4.00
2022-12-17T12:13:03.070Z,-4.00
2022-12-17T12:16:22.193Z,-4.00
2022-12-17T12:19:44.148Z,-4.00
2022-12-17T12:22:45.483Z,-3.90
2022-12-17T12:25:44.405Z,-3.90
2022-12-17T12:28:54.905Z,-3.80
2022-12-17T12:31:54.780Z,-3.80
2022-12-17T12:35:01.751Z,-3.70
2022-12-17T12:37:47.046Z,-3.60
2022-12-17T12:40:43.965Z,-3.60
2022-12-17T12:43:42.348Z,-3.50
2022-12-17T12:46:57.910Z,-3.50
2022-12-17T12:50:08.139Z,-3.50
2022-12-17T12:52:53.576Z,-3.40
2022-12-17T12:55:38.604Z,-3.40
2022-12-17T12:58:42.655Z,-3.30
2022-12-17T13:01:27.958Z,-3.30
2022-12-17T13:04:14.648Z,-3.30
2022-12-17T13:06:50.726Z,-3.10
2022-12-17T13:09:23.166Z,-2.60
2022-12-17T13:11:53.787Z,-1.90
2022-12-17T13:14:29.130Z,-1.70
2022-12-17T13:17:07.152Z,-1.40
2022-12-17T13:19:44.656Z,-1.00
2022-12-17T13:22:20.053Z,-0.90
2022-12-17T13:24:51.802Z,-0.90
2022-12-17T13:27:31.541Z,-0.70
2022-12-17T13:30:16.671Z,-0.70
2022-12-17T13:33:12.187Z,-1.00
2022-12-17T13:35:53.877Z,-0.80
2022-12-17T13:38:49.646Z,-1.00
2022-12-17T13:41:20.389Z,-1.40
2022-12-17T13:43:52.717Z,-1.60
2022-12-17T13:46:27.054Z,-1.80
2022-12-17T13:48:57.919Z,-2.00
2022-12-17T13:51:26.333Z,-2.30
2022-12-17T13:53:57.834Z,-2.30
2022-12-17T13:56:35.351Z,-2.40
2022-12-17T13:59:08.423Z,-2.40
2022-12-17T14:01:47.070Z,-2.40
2022-12-17T14:04:24.618Z,-2.60
2022-12-17T14:06:51.919Z,-2.60
2022-12-17T14:09:19.959Z,-2.60
2022-12-17T14:12:05.432Z,-2.70
2022-12-17T14:14:40.212Z,-2.60
2022-12-17T14:17:07.142Z,-2.70
2022-12-17T14:19:34.122Z,-2.70
2022-12-17T14:22:00.890Z,-2.70
2022-12-17T14:24:29.071Z,-2.70
2022-12-17T14:26:58.014Z,-2.70
2022-12-17T14:29:25.936Z,-2.70
2022-12-17T14:32:03.698Z,-2.70
2022-12-17T14:34:40.920Z,-2.70
2022-12-17T14:37:17.226Z,-2.70
2022-12-17T14:39:44.403Z,-2.80
2022-12-17T14:42:29.452Z,-2.80
2022-12-17T14:45:07.824Z,-2.70
2022-12-17T14:47:35.600Z,-2.70
2022-12-17T14:50:17.388Z,-2.80
2022-12-17T14:52:48.749Z,-2.80
2022-12-17T14:55:33.484Z,-2.80
2022-12-17T14:58:26.707Z,-2.80
2022-12-17T15:01:04.856Z,-2.80
2022-12-17T15:03:33.156Z,-2.90
2022-12-17T15:06:10.581Z,-2.90
2022-12-17T15:08:41.870Z,-3.00
2022-12-17T15:11:12.795Z,-3.00
2022-12-17T15:13:39.490Z,-3.00
2022-12-17T15:16:06.438Z,-3.10
2022-12-17T15:18:33.344Z,-3.20
2022-12-17T15:21:00.407Z,-3.20
2022-12-17T15:23:27.066Z,-3.20
2022-12-17T15:25:53.860Z,-3.30
2022-12-17T15:28:20.853Z,-3.30
2022-12-17T15:30:48.203Z,-3.40
2022-12-17T15:33:14.946Z,-3.40
2022-12-17T15:35:41.988Z,-3.50
2022-12-17T15:38:09.925Z,-3.50
2022-12-17T15:40:36.693Z,-3.50
2022-12-17T15:43:12.900Z,-3.60
2022-12-17T15:45:47.815Z,-3.60
2022-12-17T15:48:21.980Z,-3.60
2022-12-17T15:50:48.765Z,-3.60
2022-12-17T15:53:16.082Z,-3.70
2022-12-17T15:55:43.024Z,-3.70
2022-12-17T15:58:11.397Z,-3.70
2022-12-17T16:00:38.277Z,-3.80
2022-12-17T16:03:05.176Z,-3.80
2022-12-17T16:05:31.996Z,-3.80
2022-12-17T16:08:02.070Z,-3.90
2022-12-17T16:10:29.237Z,-3.90
2022-12-17T16:12:56.044Z,-4.00
2022-12-17T16:15:22.788Z,-3.90
2022-12-17T16:17:49.605Z,-4.00
2022-12-17T16:20:16.492Z,-4.00
2022-12-17T16:22:43.174Z,-4.00
2022-12-17T16:25:09.916Z,-4.00
2022-12-17T16:27:36.588Z,-4.10
2022-12-17T16:30:03.748Z,-4.10
2022-12-17T16:32:36.193Z,-4.10
2022-12-17T16:35:04.664Z,-4.20
2022-12-17T16:37:31.322Z,-4.20
2022-12-17T16:40:00.136Z,-4.20
2022-12-17T16:42:27.664Z,-4.30
2022-12-17T16:44:54.334Z,-4.30
2022-12-17T16:47:20.988Z,-4.40
2022-12-17T16:49:50.176Z,-4.40
2022-12-17T16:52:17.210Z,-4.40
2022-12-17T16:54:43.880Z,-4.50
2022-12-17T16:57:10.542Z,-4.50
2022-12-17T16:59:37.252Z,-4.50
2022-12-17T17:02:04.079Z,-4.50
2022-12-17T17:04:30.971Z,-4.60
2022-12-17T17:06:57.659Z,-4.60
2022-12-17T17:09:24.672Z,-4.60
2022-12-17T17:11:52.430Z,-4.70
2022-12-17T17:14:19.631Z,-4.60
2022-12-17T17:16:46.323Z,-4.70
2022-12-17T17:19:12.968Z,-4.70
2022-12-17T17:21:42.960Z,-4.70
2022-12-17T17:24:20.881Z,-4.70
2022-12-17T17:26:48.337Z,-4.70
2022-12-17T17:29:15.055Z,-4.80
2022-12-17T17:34:28.381Z,-4.80
2022-12-17T17:36:55.036Z,-4.80
2022-12-17T17:39:21.757Z,-4.80
2022-12-17T17:41:48.443Z,-4.80
2022-12-17T17:44:15.359Z,-4.80
2022-12-17T17:46:42.242Z,-4.80
2022-12-17T17:49:09.194Z,-4.80
2022-12-17T17:52:08.312Z,-4.80
2022-12-17T17:54:24.313Z,-4.80
2022-12-17T17:56:51.013Z,-4.70
2022-12-17T17:59:19.170Z,-4.80
2022-12-17T18:01:50.224Z,-4.80
2022-12-17T18:04:21.197Z,-4.80
2022-12-17T18:07:16.044Z,-4.90
2022-12-17T18:09:34.808Z,-4.90
2022-12-17T18:12:22.421Z,-4.80
2022-12-17T18:15:12.659Z,-4.80
2022-12-17T18:17:35.814Z,-4.80
2022-12-17T18:20:02.868Z,-4.80
2022-12-17T18:22:29.542Z,-4.90
2022-12-17T18:24:56.192Z,-4.90
2022-12-17T18:27:22.862Z,-5.00
2022-12-17T18:29:49.511Z,-5.00
2022-12-17T18:32:16.155Z,-5.00
2022-12-17T18:34:42.940Z,-4.90
2022-12-17T18:37:10.617Z,-4.80
2022-12-17T18:39:37.880Z,-4.80
2022-12-17T18:42:23.125Z,-4.80
2022-12-17T18:44:49.878Z,-4.80
2022-12-17T18:47:16.642Z,-4.80
2022-12-17T18:49:43.388Z,-4.80
2022-12-17T18:52:14.897Z,-5.00
2022-12-17T18:54:43.310Z,-4.90
2022-12-17T18:57:09.962Z,-5.00
2022-12-17T18:59:37.323Z,-5.10
2022-12-17T19:02:04.165Z,-5.10
2022-12-17T19:04:32.806Z,-5.00
2022-12-17T19:06:59.680Z,-5.00
2022-12-17T19:09:45.616Z,-5.00
2022-12-17T19:12:12.377Z,-5.00
2022-12-17T19:14:39.051Z,-5.10
2022-12-17T19:17:06.210Z,-5.20
2022-12-17T19:19:33.093Z,-5.20
2022-12-17T19:22:00.168Z,-5.20
2022-12-17T19:24:27.064Z,-5.20
2022-12-17T19:26:53.756Z,-5.30
2022-12-17T19:29:20.767Z,-5.20
2022-12-17T19:31:47.596Z,-5.30
2022-12-17T19:34:15.298Z,-5.30
2022-12-17T19:36:42.065Z,-5.30
2022-12-17T19:39:11.319Z,-5.40
2022-12-17T19:41:38.071Z,-5.40
2022-12-17T19:44:06.369Z,-5.60
2022-12-17T19:46:34.055Z,-5.70
2022-12-17T19:49:00.827Z,-5.80
2022-12-17T19:51:28.174Z,-5.90
2022-12-17T19:53:55.043Z,-6.00
2022-12-17T19:56:26.586Z,-6.10
2022-12-17T19:58:55.216Z,-6.10
2022-12-17T20:01:23.543Z,-6.20
2022-12-17T20:03:50.783Z,-6.10
2022-12-17T20:06:18.483Z,-6.10
2022-12-17T20:08:45.256Z,-6.00
2022-12-17T20:11:32.914Z,-5.90
2022-12-17T20:14:18.681Z,-5.80
2022-12-17T20:16:53.046Z,-5.80
2022-12-17T20:19:21.476Z,-5.70
2022-12-17T20:21:48.280Z,-5.70
2022-12-17T20:24:15.156Z,-5.70
2022-12-17T20:26:42.021Z,-5.80
2022-12-17T20:29:09.027Z,-5.70
2022-12-17T20:31:36.182Z,-5.70
2022-12-17T20:34:03.824Z,-5.70
2022-12-17T20:36:30.477Z,-5.70
2022-12-17T20:38:57.225Z,-5.70
2022-12-17T20:41:25.520Z,-5.70
2022-12-17T20:43:52.241Z,-5.80
2022-12-17T20:46:19.695Z,-5.80
2022-12-17T20:48:46.423Z,-5.80
2022-12-17T20:51:15.172Z,-5.80
2022-12-17T20:53:42.136Z,-5.80
2022-12-17T20:56:10.397Z,-5.90
2022-12-17T20:58:38.012Z,-5.90
2022-12-17T21:01:26.096Z,-6.00
2022-12-17T21:03:53.308Z,-6.10
2022-12-17T21:06:27.851Z,-6.10
2022-12-17T21:08:54.796Z,-6.00
2022-12-17T21:11:23.503Z,-6.20
2022-12-17T21:13:50.467Z,-6.20
2022-12-17T21:16:27.790Z,-6.10
2022-12-17T21:18:58.380Z,-6.00
2022-12-17T21:21:27.491Z,-6.00
2022-12-17T21:23:54.234Z,-6.10
2022-12-17T21:26:29.211Z,-6.00
2022-12-17T21:28:59.202Z,-6.00
2022-12-17T21:31:33.635Z,-6.10
2022-12-17T21:34:02.463Z,-6.10
2022-12-17T21:36:30.310Z,-6.10
2022-12-17T21:38:57.917Z,-6.10
2022-12-17T21:41:26.871Z,-6.20
2022-12-17T21:43:58.106Z,-6.10
2022-12-17T21:46:26.897Z,-6.10
2022-12-17T21:48:53.804Z,-6.10
2022-12-17T21:51:20.878Z,-6.10
2022-12-17T21:53:47.981Z,-6.10
2022-12-17T21:56:16.156Z,-6.20
2022-12-17T21:58:43.676Z,-6.20
2022-12-17T22:01:16.535Z,-6.30
2022-12-17T22:03:53.681Z,-6.30
2022-12-17T22:06:22.730Z,-6.20
2022-12-17T22:08:52.245Z,-6.30
2022-12-17T22:11:25.194Z,-6.20
2022-12-17T22:14:15.233Z,-6.30
2022-12-17T22:16:47.148Z,-6.30
2022-12-17T22:19:16.043Z,-6.30
2022-12-17T22:21:44.017Z,-6.40
2022-12-17T22:24:18.384Z,-6.40
2022-12-17T22:26:45.283Z,-6.40
2022-12-17T22:29:11.985Z,-6.40
2022-12-17T22:31:57.097Z,-6.40
2022-12-17T22:35:05.135Z,-6.40
2022-12-17T22:40:34.300Z,-6.40
2022-12-17T22:44:28.973Z,-6.40
2022-12-17T22:44:46.803Z,-6.30
2022-12-17T22:45:49.705Z,-6.40
2022-12-17T22:48:16.365Z,-6.40
2022-12-17T22:50:50.086Z,-6.40
2022-12-17T22:53:28.551Z,-6.30
2022-12-17T22:55:55.517Z,-6.30
2022-12-17T22:58:23.425Z,-6.40
2022-12-17T23:00:50.138Z,-6.30
2022-12-17T23:03:16.990Z,-6.30
2022-12-17T23:05:43.772Z,-6.30
2022-12-17T23:08:13.311Z,-6.40
2022-12-17T23:10:39.964Z,-6.40
2022-12-17T23:13:06.636Z,-6.40
2022-12-17T23:15:34.446Z,-6.40
2022-12-17T23:18:05.312Z,-6.30
2022-12-17T23:20:32.774Z,-6.30
2022-12-17T23:22:59.570Z,-6.40
2022-12-17T23:25:26.671Z,-6.40
2022-12-17T23:27:53.445Z,-6.40
2022-12-17T23:30:20.282Z,-6.50
2022-12-17T23:32:47.609Z,-6.40
2022-12-17T23:35:14.317Z,-6.30
2022-12-17T23:37:40.994Z,-6.40
2022-12-17T23:40:09.738Z,-6.30
2022-12-17T23:42:36.451Z,-6.30
2022-12-17T23:45:03.926Z,-6.30
2022-12-17T23:47:31.442Z,-6.30
2022-12-17T23:49:58.092Z,-6.40
2022-12-17T23:52:24.802Z,-6.30
2022-12-17T23:54:51.483Z,-6.30
2022-12-17T23:57:18.213Z,-6.30
2022-12-17T23:59:44.884Z,-6.40
